createdAt,value
2018-09-21T00:00:23.097Z,65.01
2018-09-21T00:01:26.091Z,65.22
2018-09-21T00:02:29.902Z,64.89
2018-09-21T00:03:32.849Z,63.40
2018-09-21T00:04:35.760Z,64.10
2018-09-21T00:05:38.784Z,64.19
2018-09-21T00:06:42.951Z,64.86
2018-09-21T00:07:45.943Z,64.29
2018-09-21T00:08:48.994Z,64.68
2018-09-21T00:09:51.948Z,63.46
2018-09-21T00:10:54.977Z,64.11
2018-09-21T00:11:58.066Z,65.24
2018-09-21T00:13:01.585Z,65.07
2018-09-21T00:14:04.729Z,63.40
2018-09-21T00:15:08.254Z,63.75
2018-09-21T00:16:11.876Z,64.39
2018-09-21T00:17:16.157Z,64.71
2018-09-21T00:18:19.945Z,65.08
2018-09-21T00:19:23.824Z,64.73
2018-09-21T00:20:27.064Z,65.30
2018-09-21T00:21:30.136Z,64.37
2018-09-21T00:22:34.202Z,64.32
2018-09-21T00:23:37.209Z,65.74
2018-09-21T00:24:40.227Z,66.02
2018-09-21T00:25:43.392Z,65.55
2018-09-21T00:26:46.601Z,66.29
2018-09-21T00:27:49.647Z,67.14
2018-09-21T00:28:53.238Z,65.50
2018-09-21T00:29:56.028Z,66.01
2018-09-21T00:30:58.958Z,66.11
2018-09-21T00:32:02.094Z,66.02
2018-09-21T00:33:04.913Z,65.73
2018-09-21T00:34:07.690Z,65.35
2018-09-21T00:35:10.536Z,65.18
2018-09-21T00:36:13.559Z,66.77
2018-09-21T00:37:16.773Z,66.33
2018-09-21T00:38:19.999Z,65.42
2018-09-21T00:39:23.120Z,65.96
2018-09-21T00:40:25.933Z,66.23
2018-09-21T00:41:28.685Z,65.62
2018-09-21T00:42:31.406Z,67.26
2018-09-21T00:43:34.256Z,67.05
2018-09-21T00:44:38.381Z,67.47
2018-09-21T00:45:41.613Z,67.25
2018-09-21T00:46:44.375Z,66.96
2018-09-21T00:47:47.156Z,66.60
2018-09-21T00:48:49.887Z,67.48
2018-09-21T00:49:53.141Z,68.16
2018-09-21T00:50:56.205Z,68.76
2018-09-21T00:51:58.976Z,69.22
2018-09-21T00:53:01.745Z,67.20
2018-09-21T00:54:06.068Z,66.63
2018-09-21T00:55:09.214Z,67.75
2018-09-21T00:56:12.738Z,68.62
2018-09-21T00:57:15.918Z,69.36
2018-09-21T00:58:20.330Z,68.89
2018-09-21T00:59:24.047Z,68.09
2018-09-21T01:00:27.877Z,68.70
2018-09-21T01:01:30.773Z,67.69
2018-09-21T01:02:33.505Z,68.93
2018-09-21T01:03:36.546Z,68.08
2018-09-21T01:04:43.594Z,68.53
2018-09-21T01:05:47.870Z,68.73
2018-09-21T01:06:53.196Z,68.89
2018-09-21T01:07:56.633Z,69.62
2018-09-21T01:09:00.083Z,67.34
2018-09-21T01:10:05.491Z,68.62
2018-09-21T01:11:08.799Z,67.41
2018-09-21T01:12:12.377Z,68.02
2018-09-21T01:13:15.383Z,68.82
2018-09-21T01:14:19.461Z,69.13
2018-09-21T01:15:23.286Z,67.52
2018-09-21T01:16:29.240Z,67.30
2018-09-21T01:17:32.570Z,67.25
2018-09-21T01:18:38.036Z,67.67
2018-09-21T01:19:41.423Z,67.24
2018-09-21T01:20:45.542Z,68.37
2018-09-21T01:21:48.596Z,69.34
2018-09-21T01:22:53.253Z,69.24
2018-09-21T01:23:56.751Z,70.27
2018-09-21T01:24:59.751Z,69.78
2018-09-21T01:26:02.660Z,67.63
2018-09-21T01:27:05.457Z,66.36
2018-09-21T01:28:08.205Z,65.91
2018-09-21T01:29:13.861Z,65.51
2018-09-21T01:30:18.482Z,65.03
2018-09-21T01:31:22.114Z,64.93
2018-09-21T01:32:25.357Z,64.31
2018-09-21T01:33:29.986Z,64.43
2018-09-21T01:34:34.467Z,64.08
2018-09-21T01:35:38.873Z,63.26
2018-09-21T01:36:42.223Z,63.33
2018-09-21T01:37:45.679Z,63.47
2018-09-21T01:38:48.413Z,63.46
2018-09-21T01:39:51.171Z,63.84
2018-09-21T01:40:53.938Z,63.28
2018-09-21T01:41:56.959Z,63.22
2018-09-21T01:42:59.656Z,62.24
2018-09-21T01:44:02.408Z,64.87
2018-09-21T01:45:05.086Z,63.44
2018-09-21T01:46:07.837Z,63.54
2018-09-21T01:47:10.542Z,63.81
2018-09-21T01:48:13.528Z,62.80
2018-09-21T01:49:16.252Z,63.18
2018-09-21T01:50:19.113Z,63.05
2018-09-21T01:51:22.154Z,61.94
2018-09-21T01:52:24.874Z,62.72
2018-09-21T01:53:27.669Z,62.31
2018-09-21T01:54:30.881Z,62.12
2018-09-21T01:55:35.101Z,61.54
2018-09-21T01:56:37.805Z,61.45
2018-09-21T01:57:40.575Z,62.05
2018-09-21T01:58:43.297Z,62.08
2018-09-21T01:59:46.057Z,61.60
2018-09-21T02:00:49.167Z,61.64
2018-09-21T02:01:51.958Z,62.01
2018-09-21T02:02:54.714Z,62.35
2018-09-21T02:03:57.409Z,62.02
2018-09-21T02:05:00.160Z,61.68
2018-09-21T02:06:02.927Z,62.34
2018-09-21T02:07:06.010Z,62.25
2018-09-21T02:08:08.747Z,62.03
2018-09-21T02:09:11.588Z,62.13
2018-09-21T02:10:14.307Z,62.06
2018-09-21T02:11:17.094Z,61.76
2018-09-21T02:12:19.839Z,61.87
2018-09-21T02:13:23.046Z,62.01
2018-09-21T02:14:25.842Z,62.24
2018-09-21T02:15:28.660Z,62.53
2018-09-21T02:16:31.407Z,62.41
2018-09-21T02:17:34.315Z,62.40
2018-09-21T02:18:37.104Z,62.76
2018-09-21T02:19:40.351Z,63.78
2018-09-21T02:20:43.092Z,62.75
2018-09-21T02:21:45.819Z,61.74
2018-09-21T02:22:48.551Z,61.97
2018-09-21T02:23:51.284Z,63.09
2018-09-21T02:24:54.006Z,62.78
2018-09-21T02:25:57.112Z,62.71
2018-09-21T02:26:59.865Z,62.47
2018-09-21T02:28:02.633Z,63.25
2018-09-21T02:29:05.364Z,64.27
2018-09-21T02:30:08.118Z,63.36
2018-09-21T02:31:10.880Z,64.33
2018-09-21T02:32:13.921Z,63.53
2018-09-21T02:33:16.639Z,63.62
2018-09-21T02:34:19.842Z,62.82
2018-09-21T02:35:22.564Z,64.07
2018-09-21T02:36:25.353Z,64.33
2018-09-21T02:37:28.211Z,63.50
2018-09-21T02:38:31.251Z,64.21
2018-09-21T02:39:33.991Z,64.85
2018-09-21T02:40:36.721Z,64.39
2018-09-21T02:41:39.499Z,65.03
2018-09-21T02:42:42.213Z,63.74
2018-09-21T02:43:44.976Z,63.91
2018-09-21T02:44:48.624Z,64.14
2018-09-21T02:45:51.532Z,64.49
2018-09-21T02:46:54.270Z,64.63
2018-09-21T02:47:57.023Z,63.71
2018-09-21T02:48:59.872Z,63.97
2018-09-21T02:50:02.665Z,63.55
2018-09-21T02:51:05.720Z,64.45
2018-09-21T02:52:08.523Z,64.42
2018-09-21T02:53:11.255Z,63.50
2018-09-21T02:54:15.609Z,62.92
2018-09-21T02:55:18.320Z,63.05
2018-09-21T02:56:21.730Z,63.19
2018-09-21T02:57:24.750Z,62.87
2018-09-21T02:58:27.490Z,63.32
2018-09-21T02:59:30.222Z,64.00
2018-09-21T03:00:33.059Z,64.24
2018-09-21T03:01:35.754Z,63.80
2018-09-21T03:02:38.484Z,63.78
2018-09-21T03:03:41.530Z,63.58
2018-09-21T03:04:49.280Z,63.19
2018-09-21T03:05:52.109Z,64.02
2018-09-21T03:06:54.903Z,64.25
2018-09-21T03:07:57.641Z,64.27
2018-09-21T03:09:00.407Z,64.51
2018-09-21T03:10:03.468Z,64.49
2018-09-21T03:11:06.229Z,63.73
2018-09-21T03:12:08.970Z,64.23
2018-09-21T03:13:11.811Z,63.50
2018-09-21T03:14:14.552Z,65.35
2018-09-21T03:15:17.317Z,65.09
2018-09-21T03:16:20.558Z,65.01
2018-09-21T03:17:23.320Z,65.70
2018-09-21T03:18:26.099Z,64.65
2018-09-21T03:19:28.839Z,65.02
2018-09-21T03:20:31.665Z,64.65
2018-09-21T03:21:34.403Z,66.23
2018-09-21T03:22:37.413Z,66.72
2018-09-21T03:23:40.214Z,65.89
2018-09-21T03:24:42.953Z,67.08
2018-09-21T03:25:45.908Z,66.87
2018-09-21T03:26:48.666Z,66.02
2018-09-21T03:27:51.392Z,65.83
2018-09-21T03:28:54.154Z,66.19
2018-09-21T03:29:56.899Z,65.52
2018-09-21T03:30:59.691Z,65.30
2018-09-21T03:32:02.415Z,65.54
2018-09-21T03:33:05.199Z,64.80
2018-09-21T03:34:07.919Z,64.46
2018-09-21T03:35:11.103Z,64.17
2018-09-21T03:36:13.804Z,64.99
2018-09-21T03:37:16.596Z,64.90
2018-09-21T03:38:19.335Z,65.52
2018-09-21T03:39:22.110Z,65.80
2018-09-21T03:40:28.468Z,65.75
2018-09-21T03:41:31.586Z,65.47
2018-09-21T03:42:34.358Z,65.07
2018-09-21T03:43:37.140Z,64.07
2018-09-21T03:44:39.860Z,64.95
2018-09-21T03:45:42.608Z,64.76
2018-09-21T03:46:45.307Z,64.63
2018-09-21T03:47:48.397Z,64.00
2018-09-21T03:48:51.211Z,63.96
2018-09-21T03:49:53.942Z,64.27
2018-09-21T03:50:56.685Z,64.47
2018-09-21T03:51:59.455Z,64.63
2018-09-21T03:53:02.287Z,63.63
2018-09-21T03:54:05.419Z,63.67
2018-09-21T03:55:08.204Z,63.75
2018-09-21T03:56:10.953Z,64.04
2018-09-21T03:57:13.703Z,64.61
2018-09-21T03:58:17.226Z,65.23
2018-09-21T03:59:19.944Z,65.35
2018-09-21T04:00:23.105Z,66.40
2018-09-21T04:01:27.033Z,67.27
2018-09-21T04:02:30.428Z,66.38
2018-09-21T04:03:33.843Z,65.69
2018-09-21T04:04:36.703Z,65.60
2018-09-21T04:05:39.413Z,64.74
2018-09-21T04:06:42.472Z,65.26
2018-09-21T04:07:45.224Z,65.32
2018-09-21T04:08:47.973Z,65.44
2018-09-21T04:09:51.000Z,65.22
2018-09-21T04:10:53.774Z,64.72
2018-09-21T04:11:56.483Z,64.25
2018-09-21T04:12:59.510Z,63.39
2018-09-21T04:14:02.271Z,63.94
2018-09-21T04:15:06.674Z,64.54
2018-09-21T04:16:09.425Z,65.26
2018-09-21T04:17:12.184Z,64.92
2018-09-21T04:18:14.944Z,64.38
2018-09-21T04:19:20.911Z,64.71
2018-09-21T04:20:23.680Z,64.58
2018-09-21T04:21:26.451Z,65.16
2018-09-21T04:22:29.209Z,64.79
2018-09-21T04:23:31.927Z,65.61
2018-09-21T04:24:34.661Z,64.79
2018-09-21T04:25:37.700Z,64.62
2018-09-21T04:26:40.417Z,64.93
2018-09-21T04:27:43.259Z,63.79
2018-09-21T04:28:46.004Z,63.78
2018-09-21T04:29:48.776Z,63.43
2018-09-21T04:30:51.575Z,63.84
2018-09-21T04:31:54.579Z,64.57
2018-09-21T04:32:58.895Z,64.70
2018-09-21T04:34:01.773Z,63.49
2018-09-21T04:35:04.576Z,62.93
2018-09-21T04:36:07.453Z,63.49
2018-09-21T04:37:10.166Z,63.45
2018-09-21T04:38:13.211Z,63.22
2018-09-21T04:39:15.953Z,62.62
2018-09-21T04:40:18.689Z,61.69
2018-09-21T04:41:21.426Z,61.36
2018-09-21T04:42:24.169Z,61.04
2018-09-21T04:43:26.919Z,61.67
2018-09-21T04:44:30.162Z,62.57
2018-09-21T04:45:33.396Z,61.89
2018-09-21T04:46:36.121Z,62.41
2018-09-21T04:47:38.848Z,61.92
2018-09-21T04:48:41.579Z,61.55
2018-09-21T04:49:45.211Z,61.03
2018-09-21T04:50:48.282Z,60.69
2018-09-21T04:51:51.009Z,60.63
2018-09-21T04:52:53.718Z,60.95
2018-09-21T04:53:56.505Z,59.84
2018-09-21T04:54:59.374Z,60.06
2018-09-21T04:56:02.293Z,60.42
2018-09-21T04:57:05.565Z,60.05
2018-09-21T04:58:08.350Z,59.98
2018-09-21T04:59:11.108Z,59.50
2018-09-21T05:00:13.925Z,59.47
2018-09-21T05:01:16.703Z,59.99
2018-09-21T05:02:19.446Z,59.77
2018-09-21T05:03:22.198Z,59.68
2018-09-21T05:04:24.947Z,59.43
2018-09-21T05:05:27.706Z,59.34
2018-09-21T05:06:30.468Z,60.32
2018-09-21T05:07:34.713Z,60.17
2018-09-21T05:08:37.458Z,59.96
2018-09-21T05:09:41.836Z,59.73
2018-09-21T05:10:45.180Z,59.81
2018-09-21T05:11:47.905Z,59.15
2018-09-21T05:12:50.754Z,59.47
2018-09-21T05:13:53.633Z,59.00
2018-09-21T05:14:56.373Z,59.32
2018-09-21T05:15:59.111Z,59.28
2018-09-21T05:17:01.825Z,60.28
2018-09-21T05:18:04.555Z,59.88
2018-09-21T05:19:07.265Z,58.62
2018-09-21T05:20:10.635Z,58.71
2018-09-21T05:21:13.733Z,58.83
2018-09-21T05:22:16.450Z,59.15
2018-09-21T05:23:19.248Z,58.80
2018-09-21T05:24:22.070Z,58.21
2018-09-21T05:25:24.844Z,57.79
2018-09-21T05:26:29.456Z,58.01
2018-09-21T05:27:32.748Z,58.45
2018-09-21T05:28:35.499Z,58.86
2018-09-21T05:29:38.206Z,59.16
2018-09-21T05:30:40.923Z,59.48
2018-09-21T05:31:43.664Z,58.99
2018-09-21T05:32:46.439Z,59.28
2018-09-21T05:46:39.271Z,57.33
2018-09-21T05:47:42.242Z,57.13
2018-09-21T05:48:44.973Z,57.79
2018-09-21T05:49:47.978Z,56.49
2018-09-21T05:50:50.929Z,56.18
2018-09-21T05:51:53.968Z,56.45
2018-09-21T05:52:56.689Z,55.69
2018-09-21T05:53:59.459Z,55.64
2018-09-21T05:55:02.197Z,56.29
2018-09-21T05:56:04.999Z,56.43
2018-09-21T05:57:07.735Z,56.98
2018-09-21T05:58:11.628Z,56.78
2018-09-21T05:59:16.981Z,56.96
2018-09-21T06:00:19.805Z,56.96
2018-09-21T06:01:22.519Z,57.54
2018-09-21T06:02:25.557Z,57.45
2018-09-21T06:03:29.465Z,57.55
2018-09-21T06:04:32.807Z,57.90
2018-09-21T06:05:35.591Z,58.38
2018-09-21T06:06:38.312Z,58.76
2018-09-21T06:07:41.128Z,58.46
2018-09-21T06:08:43.883Z,58.81
2018-09-21T06:09:46.711Z,57.84
2018-09-21T06:10:49.883Z,58.69
2018-09-21T06:11:52.773Z,58.14
2018-09-21T06:12:55.560Z,57.95
2018-09-21T06:13:58.519Z,57.52
2018-09-21T06:15:01.359Z,57.60
2018-09-21T06:16:04.847Z,58.50
2018-09-21T06:17:08.004Z,58.31
2018-09-21T06:18:11.532Z,57.47
2018-09-21T06:19:15.080Z,57.61
2018-09-21T06:20:19.341Z,58.16
2018-09-21T06:21:22.104Z,58.35
2018-09-21T06:22:25.860Z,58.45
2018-09-21T06:23:29.930Z,58.20
2018-09-21T06:24:32.681Z,58.75
2018-09-21T06:25:36.035Z,58.60
2018-09-21T06:26:38.780Z,58.21
2018-09-21T06:27:42.065Z,58.58
2018-09-21T06:28:44.824Z,57.52
2018-09-21T06:29:48.973Z,57.52
2018-09-21T06:30:52.559Z,57.83
2018-09-21T06:31:55.311Z,57.72
2018-09-21T06:32:59.509Z,57.91
2018-09-21T06:34:02.266Z,57.85
2018-09-21T06:35:05.068Z,58.23
2018-09-21T06:36:08.230Z,58.17
2018-09-21T06:37:10.972Z,58.73
2018-09-21T06:38:13.758Z,58.04
2018-09-21T06:39:16.564Z,57.85
2018-09-21T06:40:19.382Z,58.38
2018-09-21T06:41:22.194Z,57.88
2018-09-21T06:42:25.456Z,58.26
2018-09-21T06:43:28.469Z,58.50
2018-09-21T06:44:31.263Z,58.76
2018-09-21T06:45:34.001Z,58.43
2018-09-21T06:46:36.813Z,58.79
2018-09-21T06:47:39.772Z,58.34
2018-09-21T06:48:42.875Z,58.02
2018-09-21T06:49:45.606Z,58.74
2018-09-21T06:50:48.440Z,58.08
2018-09-21T06:51:51.188Z,58.47
2018-09-21T06:52:53.961Z,58.78
2018-09-21T06:53:56.678Z,58.35
2018-09-21T06:54:59.894Z,58.39
2018-09-21T06:56:03.422Z,58.54
2018-09-21T06:57:06.189Z,58.86
2018-09-21T06:58:10.527Z,58.75
2018-09-21T06:59:14.082Z,59.20
2018-09-21T07:00:18.201Z,58.76
2018-09-21T07:01:22.247Z,58.99
2018-09-21T07:02:25.617Z,58.71
2018-09-21T07:03:28.384Z,58.67
2018-09-21T07:04:31.170Z,58.16
2018-09-21T07:05:34.111Z,58.67
2018-09-21T07:06:36.857Z,59.11
2018-09-21T07:07:40.001Z,58.48
2018-09-21T07:08:42.848Z,58.57
2018-09-21T07:09:48.310Z,59.32
2018-09-21T07:10:51.239Z,58.56
2018-09-21T07:11:55.567Z,58.86
2018-09-21T07:12:59.042Z,59.05
2018-09-21T07:14:02.384Z,59.40
2018-09-21T07:15:05.493Z,59.66
2018-09-21T07:16:08.233Z,59.06
2018-09-21T07:17:10.977Z,59.85
2018-09-21T07:18:13.731Z,59.18
2018-09-21T07:19:16.519Z,59.23
2018-09-21T07:20:19.330Z,59.65
2018-09-21T07:21:23.336Z,59.82
2018-09-21T07:22:26.154Z,59.79
2018-09-21T07:23:30.681Z,58.98
2018-09-21T07:24:33.421Z,59.08
2018-09-21T07:25:37.273Z,59.27
2018-09-21T07:26:40.488Z,59.88
2018-09-21T07:27:43.309Z,59.79
2018-09-21T07:28:47.911Z,60.13
2018-09-21T07:29:50.705Z,59.57
2018-09-21T07:30:53.517Z,59.75
2018-09-21T07:31:57.206Z,59.90
2018-09-21T07:32:59.982Z,60.61
2018-09-21T07:34:02.768Z,60.52
2018-09-21T07:35:05.782Z,60.17
2018-09-21T07:36:09.092Z,60.73
2018-09-21T07:37:11.837Z,60.47
2018-09-21T07:38:15.186Z,60.79
2018-09-21T07:39:17.977Z,61.11
2018-09-21T07:40:20.897Z,60.92
2018-09-21T07:41:23.725Z,61.07
2018-09-21T07:42:26.754Z,61.12
2018-09-21T07:43:29.599Z,61.06
2018-09-21T07:44:33.145Z,60.46
2018-09-21T07:45:36.428Z,60.81
2018-09-21T07:46:39.349Z,60.65
2018-09-21T07:47:42.348Z,60.57
2018-09-21T07:48:45.983Z,60.88
2018-09-21T07:49:48.766Z,60.12
2018-09-21T07:50:52.423Z,60.33
2018-09-21T07:51:55.149Z,59.98
2018-09-21T07:52:58.011Z,59.04
2018-09-21T07:54:00.737Z,58.98
2018-09-21T07:55:04.539Z,59.56
2018-09-21T07:56:07.298Z,58.42
2018-09-21T07:57:11.562Z,58.57
2018-09-21T07:58:15.367Z,57.89
2018-09-21T07:59:18.519Z,58.44
2018-09-21T08:00:21.486Z,57.63
2018-09-21T08:01:24.306Z,57.76
2018-09-21T08:02:27.014Z,56.98
2018-09-21T08:03:30.297Z,56.06
2018-09-21T08:04:33.798Z,55.97
2018-09-21T08:05:36.780Z,56.07
2018-09-21T08:06:39.930Z,56.29
2018-09-21T08:07:43.757Z,53.87
2018-09-21T08:08:46.878Z,54.56
2018-09-21T08:09:49.730Z,53.78
2018-09-21T08:10:52.559Z,53.63
2018-09-21T08:11:55.301Z,53.57
2018-09-21T08:12:58.190Z,53.69
2018-09-21T08:14:00.982Z,53.54
2018-09-21T08:15:04.556Z,52.62
2018-09-21T08:16:07.297Z,53.05
2018-09-21T08:17:10.298Z,53.49
2018-09-21T08:18:13.025Z,52.81
2018-09-21T08:19:17.096Z,53.15
2018-09-21T08:20:19.867Z,53.21
2018-09-21T08:21:22.985Z,53.09
2018-09-21T08:22:25.755Z,53.13
2018-09-21T08:23:28.507Z,52.72
2018-09-21T08:24:31.268Z,54.03
2018-09-21T08:25:34.260Z,52.87
2018-09-21T08:26:38.512Z,53.10
2018-09-21T08:27:42.454Z,53.44
2018-09-21T08:28:45.160Z,53.86
2018-09-21T08:29:48.205Z,53.38
2018-09-21T08:30:50.943Z,53.55
2018-09-21T08:31:53.652Z,53.78
2018-09-21T08:32:56.434Z,54.28
2018-09-21T08:33:59.927Z,53.62
2018-09-21T08:35:02.775Z,53.99
2018-09-21T08:36:07.268Z,54.01
2018-09-21T08:37:10.439Z,54.79
2018-09-21T08:38:13.279Z,54.55
2018-09-21T08:39:16.867Z,55.11
2018-09-21T08:40:21.620Z,55.16
2018-09-21T08:41:25.156Z,54.72
2018-09-21T08:42:27.897Z,55.48
2018-09-21T08:43:30.714Z,54.81
2018-09-21T08:44:33.528Z,55.49
2018-09-21T08:45:36.764Z,54.93
2018-09-21T08:46:41.351Z,54.40
2018-09-21T08:47:44.496Z,55.44
2018-09-21T08:48:49.157Z,54.93
2018-09-21T08:49:53.556Z,55.66
2018-09-21T08:50:56.287Z,55.62
2018-09-21T08:52:01.671Z,55.59
2018-09-21T08:53:04.838Z,55.34
2018-09-21T08:54:08.630Z,55.60
2018-09-21T08:55:11.716Z,55.20
2018-09-21T08:56:17.714Z,55.31
2018-09-21T08:57:20.666Z,55.25
2018-09-21T08:58:23.412Z,55.09
2018-09-21T08:59:26.427Z,55.85
2018-09-21T09:00:29.203Z,55.43
2018-09-21T09:01:31.975Z,55.36
2018-09-21T09:02:35.515Z,55.56
2018-09-21T09:03:40.666Z,55.69
2018-09-21T09:04:43.706Z,56.25
2018-09-21T09:05:57.233Z,55.98
2018-09-21T09:07:02.409Z,55.61
2018-09-21T09:08:05.241Z,56.04
2018-09-21T09:09:08.064Z,56.13
2018-09-21T09:10:11.716Z,56.02
2018-09-21T09:11:14.448Z,55.38
2018-09-21T09:12:17.529Z,55.83
2018-09-21T09:13:20.846Z,55.00
2018-09-21T09:14:24.328Z,55.80
2018-09-21T09:15:27.849Z,55.38
2018-09-21T09:16:30.596Z,55.01
2018-09-21T09:17:33.343Z,54.58
2018-09-21T09:18:36.374Z,54.32
2018-09-21T09:19:41.184Z,54.91
2018-09-21T09:20:43.898Z,55.07
2018-09-21T09:21:47.402Z,54.30
2018-09-21T09:22:50.142Z,53.89
2018-09-21T09:23:53.935Z,53.87
2018-09-21T09:24:57.176Z,53.96
2018-09-21T09:26:00.480Z,54.48
2018-09-21T09:27:03.456Z,54.14
2018-09-21T09:28:09.653Z,53.31
2018-09-21T09:29:13.373Z,53.60
2018-09-21T09:30:16.932Z,53.34
2018-09-21T09:31:20.254Z,54.19
2018-09-21T09:32:22.975Z,54.10
2018-09-21T09:33:25.686Z,53.53
2018-09-21T09:34:28.461Z,53.66
2018-09-21T09:35:31.407Z,53.91
2018-09-21T09:36:35.480Z,53.54
2018-09-21T09:37:39.443Z,53.08
2018-09-21T09:38:45.224Z,53.63
2018-09-21T09:39:48.147Z,53.54
2018-09-21T09:40:51.156Z,54.31
2018-09-21T09:41:54.025Z,54.04
2018-09-21T09:42:56.829Z,54.18
2018-09-21T09:44:01.016Z,53.17
2018-09-21T09:45:05.605Z,53.92
2018-09-21T09:46:09.680Z,54.75
2018-09-21T09:47:13.949Z,53.95
2018-09-21T09:48:16.714Z,54.85
2018-09-21T09:49:21.510Z,55.11
2018-09-21T09:50:26.384Z,55.08
2018-09-21T09:51:29.271Z,55.13
2018-09-21T09:52:33.603Z,55.22
2018-09-21T09:53:36.357Z,55.22
2018-09-21T09:54:39.830Z,54.72
2018-09-21T09:55:43.480Z,54.67
2018-09-21T10:08:18.614Z,59.78
2018-09-21T10:09:22.116Z,58.63
2018-09-21T10:10:25.070Z,59.50
2018-09-21T10:11:27.812Z,59.68
2018-09-21T10:12:32.447Z,58.55
2018-09-21T10:13:35.662Z,58.91
2018-09-21T10:14:38.636Z,59.30
2018-09-21T10:15:47.057Z,59.88
2018-09-21T10:16:49.807Z,59.85
2018-09-21T10:17:52.635Z,59.14
2018-09-21T10:18:55.413Z,59.82
2018-09-21T10:19:58.656Z,59.87
2018-09-21T10:21:01.403Z,60.40
2018-09-21T10:22:04.360Z,59.67
2018-09-21T10:25:40.324Z,59.98
2018-09-21T10:26:44.737Z,60.22
2018-09-21T10:27:48.783Z,60.56
2018-09-21T10:28:51.886Z,61.57
2018-09-21T10:29:54.806Z,61.54
2018-09-21T10:42:55.715Z,88.71
2018-09-21T10:43:59.358Z,90.11
2018-09-21T10:45:02.231Z,90.40
2018-09-21T10:46:05.401Z,90.27
2018-09-21T10:47:08.203Z,88.53
2018-09-21T10:48:12.314Z,90.02
2018-09-21T10:49:15.850Z,89.84
2018-09-21T10:50:19.235Z,89.55
2018-09-21T10:51:22.332Z,88.86
2018-09-21T10:52:25.342Z,88.88
2018-09-21T10:53:30.371Z,89.71
2018-09-21T10:54:34.603Z,90.31
2018-09-21T10:55:38.458Z,89.09
2018-09-21T10:56:41.238Z,89.53
2018-09-21T10:57:43.999Z,89.34
2018-09-21T10:58:46.772Z,89.62
2018-09-21T10:59:49.788Z,89.93
2018-09-21T11:00:52.943Z,87.45
2018-09-21T11:01:56.401Z,89.00
2018-09-21T11:03:00.751Z,88.74
2018-09-21T11:04:05.712Z,88.32
2018-09-21T11:05:08.452Z,88.71
2018-09-21T11:06:11.218Z,87.93
2018-09-21T11:07:14.807Z,88.71
2018-09-21T11:08:17.579Z,87.75
2018-09-21T11:09:21.230Z,86.34
2018-09-21T11:10:24.100Z,86.32
2018-09-21T11:11:31.706Z,85.95
2018-09-21T11:12:34.470Z,85.60
2018-09-21T11:13:38.512Z,86.42
2018-09-21T11:14:42.147Z,85.17
2018-09-21T11:15:45.058Z,85.03
2018-09-21T11:16:49.365Z,86.13
2018-09-21T11:17:52.619Z,86.08
2018-09-21T11:18:55.441Z,86.10
2018-09-21T11:20:05.302Z,85.93
2018-09-21T11:21:08.049Z,85.13
2018-09-21T11:22:10.758Z,86.51
2018-09-21T11:23:13.564Z,86.65
2018-09-21T11:24:16.864Z,85.97
2018-09-21T11:25:19.837Z,84.88
2018-09-21T11:26:22.999Z,85.30
2018-09-21T11:27:25.698Z,85.46
2018-09-21T11:28:29.284Z,85.87
2018-09-21T11:29:33.624Z,85.90
2018-09-21T11:30:36.963Z,86.08
2018-09-21T11:31:40.723Z,84.59
2018-09-21T11:32:44.799Z,86.29
2018-09-21T11:33:49.168Z,86.54
2018-09-21T11:34:52.037Z,86.96
2018-09-21T11:35:54.766Z,88.26
2018-09-21T11:36:58.098Z,88.28
2018-09-21T11:38:00.898Z,88.04
2018-09-21T11:39:04.825Z,88.23
2018-09-21T11:40:07.959Z,88.07
2018-09-21T11:41:10.739Z,88.29
2018-09-21T11:42:13.769Z,88.89
2018-09-21T11:43:21.119Z,89.32
2018-09-21T11:44:23.862Z,88.20
2018-09-21T11:45:27.339Z,87.64
2018-09-21T11:46:31.598Z,87.78
2018-09-21T11:47:34.537Z,88.72
2018-09-21T11:48:37.287Z,89.29
2018-09-21T11:49:40.008Z,88.80
2018-09-21T11:50:42.736Z,88.69
2018-09-21T11:51:46.637Z,88.02
2018-09-21T11:52:49.741Z,89.01
2018-09-21T11:53:52.427Z,88.59
2018-09-21T11:54:58.325Z,88.46
2018-09-21T11:56:02.123Z,88.46
2018-09-21T11:57:07.636Z,88.37
2018-09-21T11:58:10.659Z,88.35
2018-09-21T11:59:14.396Z,87.31
2018-09-21T12:00:17.123Z,86.49
2018-09-21T12:01:20.491Z,85.96
2018-09-21T12:02:23.297Z,86.23
2018-09-21T12:03:26.429Z,85.31
2018-09-21T12:04:29.170Z,86.25
2018-09-21T12:05:31.943Z,86.05
2018-09-21T12:06:34.689Z,86.23
2018-09-21T12:07:37.770Z,85.49
2018-09-21T12:08:42.239Z,84.28
2018-09-21T12:09:46.463Z,84.50
2018-09-21T12:10:49.211Z,84.40
2018-09-21T12:11:53.658Z,83.92
2018-09-21T12:12:56.399Z,84.88
2018-09-21T12:14:00.259Z,85.51
2018-09-21T12:15:06.044Z,86.25
2018-09-21T12:16:11.636Z,86.04
2018-09-21T12:17:14.435Z,85.66
2018-09-21T12:18:17.277Z,85.73
2018-09-21T12:19:23.517Z,87.99
2018-09-21T12:20:28.395Z,87.22
2018-09-21T12:21:32.749Z,87.94
2018-09-21T12:22:35.691Z,88.71
2018-09-21T12:23:38.532Z,89.22
2018-09-21T12:24:43.491Z,89.46
2018-09-21T12:25:46.252Z,88.65
2018-09-21T12:26:49.080Z,89.17
2018-09-21T12:27:52.161Z,91.17
2018-09-21T12:28:55.030Z,89.73
2018-09-21T12:29:57.751Z,89.26
2018-09-21T12:31:00.477Z,89.46
2018-09-21T12:32:04.124Z,90.25
2018-09-21T12:33:07.949Z,88.72
2018-09-21T12:34:11.168Z,89.28
2018-09-21T12:35:14.108Z,89.39
2018-09-21T12:36:17.554Z,88.82
2018-09-21T12:37:21.722Z,88.38
2018-09-21T12:38:24.725Z,88.39
2018-09-21T12:39:28.041Z,88.67
2018-09-21T12:40:31.814Z,88.84
2018-09-21T12:41:34.788Z,89.14
2018-09-21T12:42:37.692Z,89.46
2018-09-21T12:43:40.676Z,89.60
2018-09-21T12:44:43.727Z,88.35
2018-09-21T12:45:48.017Z,89.04
2018-09-21T12:46:51.703Z,89.34
2018-09-21T12:47:54.547Z,88.98
2018-09-21T12:48:59.380Z,89.52
2018-09-21T12:50:05.171Z,89.31
2018-09-21T12:51:09.138Z,88.47
2018-09-21T12:52:14.843Z,88.31
2018-09-21T12:53:19.056Z,89.10
2018-09-21T12:54:22.457Z,87.76
2018-09-21T12:55:28.039Z,86.50
2018-09-21T12:56:30.855Z,86.71
2018-09-21T12:57:35.140Z,87.62
2018-09-21T12:58:38.034Z,86.93
2018-09-21T12:59:41.278Z,86.01
2018-09-21T13:00:49.051Z,84.59
2018-09-21T13:01:51.760Z,83.73
2018-09-21T13:02:54.789Z,84.03
2018-09-21T13:03:57.531Z,82.93
2018-09-21T13:06:14.759Z,84.54
2018-09-21T13:07:17.497Z,84.03
2018-09-21T13:08:20.989Z,84.30
2018-09-21T13:09:23.698Z,83.27
2018-09-21T13:10:27.031Z,83.89
2018-09-21T13:11:30.929Z,82.32
2018-09-21T13:12:33.770Z,83.39
2018-09-21T13:13:36.984Z,83.79
2018-09-21T13:14:39.732Z,85.09
2018-09-21T13:15:42.511Z,85.20
2018-09-21T13:16:45.263Z,86.03
2018-09-21T13:17:48.263Z,84.76
2018-09-21T13:18:50.977Z,83.85
2018-09-21T13:19:54.682Z,83.99
2018-09-21T13:20:57.448Z,84.52
2018-09-21T13:22:01.807Z,84.89
2018-09-21T13:23:04.532Z,84.42
2018-09-21T13:24:08.728Z,85.03
2018-09-21T13:25:11.708Z,85.29
2018-09-21T13:26:14.460Z,83.45
2018-09-21T13:27:17.231Z,83.16
2018-09-21T13:28:21.523Z,84.04
2018-09-21T13:29:25.396Z,84.84
2018-09-21T13:30:29.858Z,85.57
2018-09-21T13:31:37.593Z,84.88
2018-09-21T13:32:45.429Z,85.67
2018-09-21T13:33:48.247Z,86.75
2018-09-21T13:34:51.266Z,85.86
2018-09-21T13:35:54.559Z,85.24
2018-09-21T13:36:57.662Z,85.62
2018-09-21T13:38:04.627Z,85.51
2018-09-21T13:39:08.364Z,87.81
2018-09-21T13:40:11.389Z,87.93
2018-09-21T13:41:14.239Z,87.81
2018-09-21T13:42:18.538Z,88.73
2018-09-21T13:43:22.153Z,88.32
2018-09-21T13:44:26.333Z,88.15
2018-09-21T13:45:29.116Z,86.48
2018-09-21T13:46:35.512Z,87.50
2018-09-21T13:47:38.247Z,87.72
2018-09-21T13:48:41.582Z,87.39
2018-09-21T13:49:44.603Z,87.37
2018-09-21T13:50:47.355Z,88.10
2018-09-21T13:51:50.056Z,87.47
2018-09-21T13:52:53.764Z,87.36
2018-09-21T13:53:56.629Z,86.13
2018-09-21T13:54:59.588Z,86.64
2018-09-21T13:56:02.725Z,86.38
2018-09-21T13:57:06.279Z,86.04
2018-09-21T13:58:11.559Z,86.38
2018-09-21T13:59:15.324Z,87.39
2018-09-21T14:00:18.107Z,88.06
2018-09-21T14:01:23.649Z,87.74
2018-09-21T14:02:28.775Z,87.61
2018-09-21T14:03:32.433Z,87.38
2018-09-21T14:04:36.546Z,86.67
2018-09-21T14:05:42.903Z,86.94
2018-09-21T14:06:45.634Z,87.68
2018-09-21T14:07:48.396Z,87.09
2018-09-21T14:08:51.405Z,87.47
2018-09-21T14:09:54.363Z,86.89
2018-09-21T14:10:57.141Z,87.17
2018-09-21T14:12:00.117Z,87.73
2018-09-21T14:13:02.862Z,87.29
2018-09-21T14:14:06.388Z,86.56
2018-09-21T14:15:10.381Z,86.81